sensor_id;sensor_type;location;lat;lon;timestamp;P1;durP1;ratioP1;P2;durP2;ratioP2
21786;SDS011;11055;50.870;4.316;2023-02-08T00:02:07;22.95;;;14.80;;
21786;SDS011;11055;50.870;4.316;2023-02-08T00:04:33;21.35;;;15.27;;
21786;SDS011;11055;50.870;4.316;2023-02-08T00:06:59;23.48;;;15.52;;
21786;SDS011;11055;50.870;4.316;2023-02-08T00:09:24;30.95;;;19.75;;
21786;SDS011;11055;50.870;4.316;2023-02-08T00:11:50;20.75;;;15.40;;
21786;SDS011;11055;50.870;4.316;2023-02-08T00:14:16;22.63;;;16.10;;
21786;SDS011;11055;50.870;4.316;2023-02-08T00:16:41;24.45;;;15.35;;
21786;SDS011;11055;50.870;4.316;2023-02-08T00:19:07;22.88;;;14.80;;
21786;SDS011;11055;50.870;4.316;2023-02-08T00:21:33;21.73;;;15.23;;
21786;SDS011;11055;50.870;4.316;2023-02-08T00:23:58;19.27;;;14.80;;
21786;SDS011;11055;50.870;4.316;2023-02-08T00:26:24;22.63;;;15.25;;
21786;SDS011;11055;50.870;4.316;2023-02-08T00:28:49;20.08;;;14.98;;
21786;SDS011;11055;50.870;4.316;2023-02-08T00:31:15;23.75;;;15.48;;
21786;SDS011;11055;50.870;4.316;2023-02-08T00:33:41;25.38;;;16.65;;
21786;SDS011;11055;50.870;4.316;2023-02-08T00:36:07;20.88;;;14.77;;
21786;SDS011;11055;50.870;4.316;2023-02-08T00:38:33;25.05;;;15.85;;
21786;SDS011;11055;50.870;4.316;2023-02-08T00:40:58;21.73;;;16.10;;
21786;SDS011;11055;50.870;4.316;2023-02-08T00:43:24;24.95;;;16.33;;
21786;SDS011;11055;50.870;4.316;2023-02-08T00:45:54;24.80;;;15.77;;
21786;SDS011;11055;50.870;4.316;2023-02-08T00:48:20;24.23;;;15.57;;
21786;SDS011;11055;50.870;4.316;2023-02-08T00:50:55;21.67;;;15.68;;
21786;SDS011;11055;50.870;4.316;2023-02-08T00:53:40;23.20;;;16.25;;
21786;SDS011;11055;50.870;4.316;2023-02-08T00:56:08;24.38;;;16.67;;
21786;SDS011;11055;50.870;4.316;2023-02-08T00:58:34;28.25;;;18.17;;
21786;SDS011;11055;50.870;4.316;2023-02-08T01:01:01;26.70;;;16.73;;
21786;SDS011;11055;50.870;4.316;2023-02-08T01:03:27;28.50;;;16.67;;
21786;SDS011;11055;50.870;4.316;2023-02-08T01:05:53;26.35;;;16.42;;
21786;SDS011;11055;50.870;4.316;2023-02-08T01:08:23;25.33;;;16.58;;
21786;SDS011;11055;50.870;4.316;2023-02-08T01:10:49;26.88;;;16.52;;
21786;SDS011;11055;50.870;4.316;2023-02-08T01:13:15;27.85;;;16.50;;
21786;SDS011;11055;50.870;4.316;2023-02-08T01:15:41;25.33;;;16.48;;
21786;SDS011;11055;50.870;4.316;2023-02-08T01:18:07;25.52;;;16.40;;
21786;SDS011;11055;50.870;4.316;2023-02-08T01:20:33;28.65;;;17.05;;
21786;SDS011;11055;50.870;4.316;2023-02-08T01:23:01;23.85;;;16.33;;
21786;SDS011;11055;50.870;4.316;2023-02-08T01:25:26;24.67;;;16.55;;
21786;SDS011;11055;50.870;4.316;2023-02-08T01:27:52;24.85;;;15.68;;
21786;SDS011;11055;50.870;4.316;2023-02-08T01:30:21;23.85;;;15.95;;
21786;SDS011;11055;50.870;4.316;2023-02-08T01:32:47;23.67;;;16.13;;
21786;SDS011;11055;50.870;4.316;2023-02-08T01:35:12;24.58;;;16.60;;
21786;SDS011;11055;50.870;4.316;2023-02-08T01:37:38;22.65;;;15.13;;
21786;SDS011;11055;50.870;4.316;2023-02-08T01:40:04;23.80;;;16.30;;
21786;SDS011;11055;50.870;4.316;2023-02-08T01:42:30;26.63;;;16.15;;
21786;SDS011;11055;50.870;4.316;2023-02-08T01:47:41;25.25;;;16.83;;
21786;SDS011;11055;50.870;4.316;2023-02-08T01:50:08;23.63;;;16.13;;
21786;SDS011;11055;50.870;4.316;2023-02-08T01:52:34;23.17;;;15.55;;
21786;SDS011;11055;50.870;4.316;2023-02-08T01:55:22;23.55;;;16.17;;
21786;SDS011;11055;50.870;4.316;2023-02-08T01:57:50;23.75;;;15.48;;
21786;SDS011;11055;50.870;4.316;2023-02-08T02:00:19;27.88;;;17.23;;
21786;SDS011;11055;50.870;4.316;2023-02-08T02:02:46;27.02;;;16.13;;
21786;SDS011;11055;50.870;4.316;2023-02-08T02:05:13;26.17;;;16.80;;
21786;SDS011;11055;50.870;4.316;2023-02-08T02:07:41;26.92;;;16.58;;
21786;SDS011;11055;50.870;4.316;2023-02-08T02:12:42;24.52;;;16.50;;
21786;SDS011;11055;50.870;4.316;2023-02-08T02:15:09;25.25;;;17.88;;
21786;SDS011;11055;50.870;4.316;2023-02-08T02:17:36;27.05;;;17.65;;
21786;SDS011;11055;50.870;4.316;2023-02-08T02:22:59;26.38;;;17.55;;
21786;SDS011;11055;50.870;4.316;2023-02-08T02:46:04;22.92;;;16.42;;
21786;SDS011;11055;50.870;4.316;2023-02-08T02:54:10;22.08;;;15.80;;
21786;SDS011;11055;50.870;4.316;2023-02-08T02:56:41;25.05;;;16.58;;
21786;SDS011;11055;50.870;4.316;2023-02-08T02:59:10;23.55;;;16.50;;
21786;SDS011;11055;50.870;4.316;2023-02-08T03:01:37;23.00;;;16.42;;
21786;SDS011;11055;50.870;4.316;2023-02-08T03:04:17;22.13;;;16.00;;
21786;SDS011;11055;50.870;4.316;2023-02-08T03:23:22;21.10;;;16.58;;
21786;SDS011;11055;50.870;4.316;2023-02-08T03:28:34;25.85;;;17.13;;
21786;SDS011;11055;50.870;4.316;2023-02-08T03:31:12;27.38;;;16.80;;
21786;SDS011;11055;50.870;4.316;2023-02-08T03:33:50;26.48;;;17.90;;
21786;SDS011;11055;50.870;4.316;2023-02-08T03:36:22;24.65;;;17.55;;
21786;SDS011;11055;50.870;4.316;2023-02-08T03:38:50;30.67;;;19.35;;
21786;SDS011;11055;50.870;4.316;2023-02-08T03:41:21;29.05;;;19.60;;
21786;SDS011;11055;50.870;4.316;2023-02-08T03:43:55;28.38;;;19.08;;
21786;SDS011;11055;50.870;4.316;2023-02-08T03:46:31;25.48;;;18.23;;
21786;SDS011;11055;50.870;4.316;2023-02-08T03:49:03;24.83;;;16.75;;
21786;SDS011;11055;50.870;4.316;2023-02-08T03:51:33;27.45;;;17.95;;
21786;SDS011;11055;50.870;4.316;2023-02-08T03:54:00;25.08;;;17.70;;
21786;SDS011;11055;50.870;4.316;2023-02-08T03:56:42;26.15;;;18.05;;
21786;SDS011;11055;50.870;4.316;2023-02-08T03:59:13;25.05;;;17.15;;
21786;SDS011;11055;50.870;4.316;2023-02-08T04:01:47;24.42;;;18.08;;
21786;SDS011;11055;50.870;4.316;2023-02-08T04:04:20;25.02;;;18.23;;
21786;SDS011;11055;50.870;4.316;2023-02-08T04:06:47;26.48;;;18.77;;
21786;SDS011;11055;50.870;4.316;2023-02-08T04:09:12;29.45;;;18.58;;
21786;SDS011;11055;50.870;4.316;2023-02-08T04:11:38;27.65;;;18.92;;
21786;SDS011;11055;50.870;4.316;2023-02-08T04:14:04;29.58;;;18.50;;
21786;SDS011;11055;50.870;4.316;2023-02-08T04:16:29;26.05;;;17.88;;
21786;SDS011;11055;50.870;4.316;2023-02-08T04:18:55;25.70;;;18.13;;
21786;SDS011;11055;50.870;4.316;2023-02-08T04:21:21;29.92;;;18.42;;
21786;SDS011;11055;50.870;4.316;2023-02-08T04:23:46;28.25;;;20.33;;
21786;SDS011;11055;50.870;4.316;2023-02-08T04:26:12;28.80;;;20.02;;
21786;SDS011;11055;50.870;4.316;2023-02-08T04:28:37;32.90;;;21.73;;
21786;SDS011;11055;50.870;4.316;2023-02-08T04:31:03;27.30;;;19.98;;
21786;SDS011;11055;50.870;4.316;2023-02-08T04:33:29;31.35;;;20.27;;
21786;SDS011;11055;50.870;4.316;2023-02-08T04:35:54;30.63;;;19.38;;
21786;SDS011;11055;50.870;4.316;2023-02-08T04:38:20;30.55;;;19.92;;
21786;SDS011;11055;50.870;4.316;2023-02-08T04:40:46;28.05;;;17.85;;
21786;SDS011;11055;50.870;4.316;2023-02-08T04:43:11;37.90;;;25.75;;
21786;SDS011;11055;50.870;4.316;2023-02-08T04:45:37;22.83;;;17.20;;
21786;SDS011;11055;50.870;4.316;2023-02-08T04:48:03;24.08;;;17.40;;
21786;SDS011;11055;50.870;4.316;2023-02-08T04:50:29;23.65;;;17.38;;
21786;SDS011;11055;50.870;4.316;2023-02-08T04:52:54;26.27;;;18.00;;
21786;SDS011;11055;50.870;4.316;2023-02-08T04:55:20;33.22;;;21.77;;
21786;SDS011;11055;50.870;4.316;2023-02-08T04:57:46;28.35;;;18.05;;
21786;SDS011;11055;50.870;4.316;2023-02-08T05:00:12;26.80;;;18.73;;
21786;SDS011;11055;50.870;4.316;2023-02-08T05:02:38;30.23;;;20.25;;
21786;SDS011;11055;50.870;4.316;2023-02-08T05:05:03;30.60;;;19.63;;
21786;SDS011;11055;50.870;4.316;2023-02-08T05:07:29;31.23;;;18.73;;
21786;SDS011;11055;50.870;4.316;2023-02-08T05:09:55;29.20;;;18.65;;
21786;SDS011;11055;50.870;4.316;2023-02-08T05:12:21;26.02;;;18.02;;
21786;SDS011;11055;50.870;4.316;2023-02-08T05:14:46;27.52;;;18.30;;
21786;SDS011;11055;50.870;4.316;2023-02-08T05:17:12;30.15;;;18.67;;
21786;SDS011;11055;50.870;4.316;2023-02-08T05:19:38;29.00;;;18.88;;
21786;SDS011;11055;50.870;4.316;2023-02-08T05:22:03;27.10;;;18.35;;
21786;SDS011;11055;50.870;4.316;2023-02-08T05:24:29;27.23;;;18.23;;
21786;SDS011;11055;50.870;4.316;2023-02-08T05:26:55;25.48;;;16.90;;
21786;SDS011;11055;50.870;4.316;2023-02-08T05:29:20;25.05;;;17.55;;
21786;SDS011;11055;50.870;4.316;2023-02-08T05:31:46;28.88;;;18.30;;
21786;SDS011;11055;50.870;4.316;2023-02-08T05:34:11;28.00;;;18.25;;
21786;SDS011;11055;50.870;4.316;2023-02-08T05:36:37;31.83;;;19.05;;
21786;SDS011;11055;50.870;4.316;2023-02-08T05:39:03;25.90;;;19.35;;
21786;SDS011;11055;50.870;4.316;2023-02-08T05:41:29;29.00;;;19.30;;
21786;SDS011;11055;50.870;4.316;2023-02-08T05:43:55;24.40;;;18.30;;
21786;SDS011;11055;50.870;4.316;2023-02-08T05:46:20;27.80;;;18.83;;
21786;SDS011;11055;50.870;4.316;2023-02-08T05:48:46;26.67;;;18.58;;
21786;SDS011;11055;50.870;4.316;2023-02-08T05:51:12;29.00;;;18.85;;
21786;SDS011;11055;50.870;4.316;2023-02-08T05:53:37;28.73;;;19.15;;
21786;SDS011;11055;50.870;4.316;2023-02-08T05:56:03;30.85;;;19.05;;
21786;SDS011;11055;50.870;4.316;2023-02-08T05:58:29;32.15;;;18.98;;
21786;SDS011;11055;50.870;4.316;2023-02-08T06:00:55;28.60;;;18.40;;
21786;SDS011;11055;50.870;4.316;2023-02-08T06:03:20;26.95;;;18.52;;
21786;SDS011;11055;50.870;4.316;2023-02-08T06:05:46;27.33;;;18.88;;
21786;SDS011;11055;50.870;4.316;2023-02-08T06:08:12;26.23;;;18.95;;
21786;SDS011;11055;50.870;4.316;2023-02-08T06:10:38;26.23;;;18.30;;
21786;SDS011;11055;50.870;4.316;2023-02-08T06:13:03;29.63;;;19.30;;
21786;SDS011;11055;50.870;4.316;2023-02-08T06:15:29;28.55;;;19.80;;
21786;SDS011;11055;50.870;4.316;2023-02-08T06:17:55;33.28;;;19.92;;
21786;SDS011;11055;50.870;4.316;2023-02-08T06:20:21;34.08;;;21.63;;
21786;SDS011;11055;50.870;4.316;2023-02-08T06:22:47;33.10;;;21.25;;
21786;SDS011;11055;50.870;4.316;2023-02-08T06:25:12;33.30;;;19.88;;
21786;SDS011;11055;50.870;4.316;2023-02-08T06:27:38;31.33;;;20.95;;
21786;SDS011;11055;50.870;4.316;2023-02-08T06:30:04;38.22;;;22.20;;
21786;SDS011;11055;50.870;4.316;2023-02-08T06:32:30;36.17;;;21.65;;
21786;SDS011;11055;50.870;4.316;2023-02-08T06:34:56;33.05;;;20.77;;
21786;SDS011;11055;50.870;4.316;2023-02-08T06:37:21;31.80;;;20.55;;
21786;SDS011;11055;50.870;4.316;2023-02-08T06:39:47;27.95;;;19.58;;
21786;SDS011;11055;50.870;4.316;2023-02-08T06:42:12;29.92;;;19.73;;
21786;SDS011;11055;50.870;4.316;2023-02-08T06:44:38;29.70;;;21.55;;
21786;SDS011;11055;50.870;4.316;2023-02-08T06:47:04;30.92;;;21.20;;
21786;SDS011;11055;50.870;4.316;2023-02-08T06:49:30;28.42;;;20.20;;
21786;SDS011;11055;50.870;4.316;2023-02-08T06:51:55;30.75;;;20.85;;
21786;SDS011;11055;50.870;4.316;2023-02-08T06:54:21;32.05;;;20.35;;
21786;SDS011;11055;50.870;4.316;2023-02-08T06:56:47;31.75;;;20.15;;
21786;SDS011;11055;50.870;4.316;2023-02-08T06:59:13;28.70;;;21.10;;
21786;SDS011;11055;50.870;4.316;2023-02-08T07:01:38;30.65;;;20.85;;
21786;SDS011;11055;50.870;4.316;2023-02-08T07:04:04;28.98;;;20.15;;
21786;SDS011;11055;50.870;4.316;2023-02-08T07:06:30;27.35;;;20.15;;
21786;SDS011;11055;50.870;4.316;2023-02-08T07:08:56;28.45;;;18.75;;
21786;SDS011;11055;50.870;4.316;2023-02-08T07:11:21;37.53;;;28.77;;
21786;SDS011;11055;50.870;4.316;2023-02-08T07:13:48;31.58;;;22.65;;
21786;SDS011;11055;50.870;4.316;2023-02-08T07:16:14;31.20;;;22.20;;
21786;SDS011;11055;50.870;4.316;2023-02-08T07:18:41;74.40;;;40.05;;
21786;SDS011;11055;50.870;4.316;2023-02-08T07:21:07;35.38;;;23.95;;
21786;SDS011;11055;50.870;4.316;2023-02-08T07:23:33;34.00;;;20.63;;
21786;SDS011;11055;50.870;4.316;2023-02-08T07:25:59;32.00;;;19.60;;
21786;SDS011;11055;50.870;4.316;2023-02-08T07:28:27;32.38;;;19.08;;
21786;SDS011;11055;50.870;4.316;2023-02-08T07:30:53;31.38;;;19.67;;
21786;SDS011;11055;50.870;4.316;2023-02-08T07:33:19;28.92;;;18.85;;
21786;SDS011;11055;50.870;4.316;2023-02-08T07:35:45;34.58;;;19.77;;
21786;SDS011;11055;50.870;4.316;2023-02-08T07:38:11;37.40;;;20.40;;
21786;SDS011;11055;50.870;4.316;2023-02-08T07:40:37;32.90;;;20.02;;
21786;SDS011;11055;50.870;4.316;2023-02-08T07:43:02;32.95;;;21.85;;
21786;SDS011;11055;50.870;4.316;2023-02-08T07:45:28;36.80;;;22.80;;
21786;SDS011;11055;50.870;4.316;2023-02-08T07:47:54;36.35;;;21.77;;
21786;SDS011;11055;50.870;4.316;2023-02-08T07:50:20;45.17;;;26.35;;
21786;SDS011;11055;50.870;4.316;2023-02-08T07:52:46;36.97;;;23.30;;
21786;SDS011;11055;50.870;4.316;2023-02-08T07:55:12;33.65;;;23.00;;
21786;SDS011;11055;50.870;4.316;2023-02-08T07:57:43;38.85;;;22.90;;
21786;SDS011;11055;50.870;4.316;2023-02-08T08:00:11;42.38;;;23.52;;
21786;SDS011;11055;50.870;4.316;2023-02-08T08:02:37;38.90;;;24.30;;
21786;SDS011;11055;50.870;4.316;2023-02-08T08:05:03;36.40;;;23.40;;
21786;SDS011;11055;50.870;4.316;2023-02-08T08:07:29;34.63;;;23.60;;
21786;SDS011;11055;50.870;4.316;2023-02-08T08:09:54;39.08;;;23.65;;
21786;SDS011;11055;50.870;4.316;2023-02-08T08:12:20;34.50;;;22.30;;
21786;SDS011;11055;50.870;4.316;2023-02-08T08:14:48;36.28;;;22.95;;
21786;SDS011;11055;50.870;4.316;2023-02-08T08:17:14;37.80;;;25.90;;
21786;SDS011;11055;50.870;4.316;2023-02-08T08:19:40;43.67;;;29.48;;
21786;SDS011;11055;50.870;4.316;2023-02-08T08:22:05;38.35;;;26.38;;
21786;SDS011;11055;50.870;4.316;2023-02-08T08:24:31;33.35;;;22.55;;
21786;SDS011;11055;50.870;4.316;2023-02-08T08:26:59;33.60;;;21.50;;
21786;SDS011;11055;50.870;4.316;2023-02-08T08:29:33;29.63;;;18.40;;
21786;SDS011;11055;50.870;4.316;2023-02-08T08:31:59;29.33;;;17.63;;
21786;SDS011;11055;50.870;4.316;2023-02-08T08:34:25;36.83;;;18.98;;
21786;SDS011;11055;50.870;4.316;2023-02-08T08:36:57;32.13;;;18.35;;
21786;SDS011;11055;50.870;4.316;2023-02-08T08:39:23;26.17;;;15.55;;
21786;SDS011;11055;50.870;4.316;2023-02-08T08:41:51;20.88;;;14.05;;
21786;SDS011;11055;50.870;4.316;2023-02-08T08:44:17;21.10;;;11.02;;
21786;SDS011;11055;50.870;4.316;2023-02-08T08:46:43;19.27;;;12.35;;
21786;SDS011;11055;50.870;4.316;2023-02-08T08:49:09;18.45;;;11.90;;
21786;SDS011;11055;50.870;4.316;2023-02-08T08:51:35;20.20;;;11.80;;
21786;SDS011;11055;50.870;4.316;2023-02-08T08:54:01;16.42;;;10.65;;
21786;SDS011;11055;50.870;4.316;2023-02-08T08:56:28;18.45;;;11.52;;
21786;SDS011;11055;50.870;4.316;2023-02-08T08:58:54;20.17;;;10.40;;
21786;SDS011;11055;50.870;4.316;2023-02-08T09:01:20;19.00;;;9.80;;
21786;SDS011;11055;50.870;4.316;2023-02-08T09:03:45;13.40;;;8.63;;
21786;SDS011;11055;50.870;4.316;2023-02-08T09:06:11;16.63;;;9.38;;
21786;SDS011;11055;50.870;4.316;2023-02-08T09:08:37;27.33;;;10.27;;
21786;SDS011;11055;50.870;4.316;2023-02-08T09:11:06;15.02;;;8.68;;
21786;SDS011;11055;50.870;4.316;2023-02-08T09:16:03;16.00;;;7.78;;
21786;SDS011;11055;50.870;4.316;2023-02-08T09:18:39;17.08;;;8.07;;
21786;SDS011;11055;50.870;4.316;2023-02-08T09:21:10;15.85;;;7.90;;
21786;SDS011;11055;50.870;4.316;2023-02-08T09:23:37;21.25;;;8.60;;
21786;SDS011;11055;50.870;4.316;2023-02-08T09:26:04;12.15;;;7.07;;
21786;SDS011;11055;50.870;4.316;2023-02-08T09:28:31;11.63;;;7.88;;
21786;SDS011;11055;50.870;4.316;2023-02-08T09:30:57;19.67;;;8.55;;
21786;SDS011;11055;50.870;4.316;2023-02-08T09:33:25;19.02;;;7.90;;
21786;SDS011;11055;50.870;4.316;2023-02-08T09:35:51;14.35;;;7.82;;
21786;SDS011;11055;50.870;4.316;2023-02-08T09:38:17;13.30;;;8.10;;
21786;SDS011;11055;50.870;4.316;2023-02-08T09:41:00;12.95;;;7.32;;
21786;SDS011;11055;50.870;4.316;2023-02-08T09:43:56;14.40;;;8.02;;
21786;SDS011;11055;50.870;4.316;2023-02-08T09:46:31;15.18;;;7.32;;
21786;SDS011;11055;50.870;4.316;2023-02-08T09:51:39;18.00;;;7.43;;
21786;SDS011;11055;50.870;4.316;2023-02-08T09:56:36;14.02;;;7.40;;
21786;SDS011;11055;50.870;4.316;2023-02-08T09:59:07;13.80;;;6.90;;
21786;SDS011;11055;50.870;4.316;2023-02-08T10:01:39;20.50;;;7.45;;
21786;SDS011;11055;50.870;4.316;2023-02-08T10:04:07;14.63;;;7.65;;
21786;SDS011;11055;50.870;4.316;2023-02-08T10:06:39;11.48;;;6.82;;
21786;SDS011;11055;50.870;4.316;2023-02-08T10:09:06;10.63;;;7.22;;
21786;SDS011;11055;50.870;4.316;2023-02-08T10:20:11;16.60;;;6.80;;
21786;SDS011;11055;50.870;4.316;2023-02-08T10:25:43;11.48;;;6.38;;
21786;SDS011;11055;50.870;4.316;2023-02-08T10:36:24;13.43;;;6.40;;
21786;SDS011;11055;50.870;4.316;2023-02-08T10:38:54;12.15;;;6.20;;
21786;SDS011;11055;50.870;4.316;2023-02-08T10:41:22;9.75;;;5.55;;
21786;SDS011;11055;50.870;4.316;2023-02-08T10:44:43;10.73;;;6.82;;
21786;SDS011;11055;50.870;4.316;2023-02-08T10:47:12;14.93;;;5.53;;
21786;SDS011;11055;50.870;4.316;2023-02-08T10:52:36;7.68;;;5.18;;
21786;SDS011;11055;50.870;4.316;2023-02-08T10:55:06;13.23;;;5.50;;
21786;SDS011;11055;50.870;4.316;2023-02-08T10:57:40;8.27;;;5.13;;
21786;SDS011;11055;50.870;4.316;2023-02-08T11:00:12;8.65;;;5.88;;
21786;SDS011;11055;50.870;4.316;2023-02-08T11:02:42;11.02;;;4.95;;
21786;SDS011;11055;50.870;4.316;2023-02-08T11:05:09;9.38;;;4.40;;
21786;SDS011;11055;50.870;4.316;2023-02-08T11:07:37;9.65;;;5.30;;
21786;SDS011;11055;50.870;4.316;2023-02-08T11:12:54;10.70;;;5.15;;
21786;SDS011;11055;50.870;4.316;2023-02-08T11:15:24;7.40;;;4.40;;
21786;SDS011;11055;50.870;4.316;2023-02-08T11:18:02;6.13;;;3.45;;
21786;SDS011;11055;50.870;4.316;2023-02-08T11:20:37;7.32;;;3.53;;
21786;SDS011;11055;50.870;4.316;2023-02-08T11:23:04;7.53;;;3.30;;
21786;SDS011;11055;50.870;4.316;2023-02-08T11:25:43;7.20;;;3.20;;
21786;SDS011;11055;50.870;4.316;2023-02-08T11:28:28;4.78;;;3.42;;
21786;SDS011;11055;50.870;4.316;2023-02-08T11:30:59;4.70;;;3.10;;
21786;SDS011;11055;50.870;4.316;2023-02-08T11:33:32;6.22;;;2.90;;
21786;SDS011;11055;50.870;4.316;2023-02-08T11:36:06;7.30;;;3.28;;
21786;SDS011;11055;50.870;4.316;2023-02-08T11:38:39;7.95;;;4.50;;
21786;SDS011;11055;50.870;4.316;2023-02-08T11:41:12;6.93;;;3.65;;
21786;SDS011;11055;50.870;4.316;2023-02-08T11:43:50;5.20;;;3.30;;
21786;SDS011;11055;50.870;4.316;2023-02-08T11:46:23;5.70;;;3.35;;
21786;SDS011;11055;50.870;4.316;2023-02-08T11:48:51;7.30;;;4.10;;
21786;SDS011;11055;50.870;4.316;2023-02-08T11:51:37;6.78;;;4.40;;
21786;SDS011;11055;50.870;4.316;2023-02-08T11:54:03;8.38;;;5.72;;
21786;SDS011;11055;50.870;4.316;2023-02-08T11:56:31;6.88;;;4.18;;
21786;SDS011;11055;50.870;4.316;2023-02-08T12:01:44;6.45;;;3.85;;
21786;SDS011;11055;50.870;4.316;2023-02-08T12:04:11;11.07;;;5.55;;
21786;SDS011;11055;50.870;4.316;2023-02-08T12:09:36;9.55;;;4.95;;
21786;SDS011;11055;50.870;4.316;2023-02-08T12:12:43;5.93;;;3.40;;
21786;SDS011;11055;50.870;4.316;2023-02-08T12:18:22;6.00;;;3.65;;
21786;SDS011;11055;50.870;4.316;2023-02-08T12:38:11;3.90;;;2.70;;
21786;SDS011;11055;50.870;4.316;2023-02-08T12:44:07;3.83;;;2.63;;
21786;SDS011;11055;50.870;4.316;2023-02-08T12:47:03;6.68;;;2.97;;
21786;SDS011;11055;50.870;4.316;2023-02-08T12:55:15;6.18;;;3.85;;
21786;SDS011;11055;50.870;4.316;2023-02-08T13:00:52;6.47;;;3.55;;
21786;SDS011;11055;50.870;4.316;2023-02-08T13:06:17;4.15;;;3.70;;
21786;SDS011;11055;50.870;4.316;2023-02-08T13:08:57;4.88;;;3.40;;
21786;SDS011;11055;50.870;4.316;2023-02-08T13:11:49;6.45;;;3.92;;
21786;SDS011;11055;50.870;4.316;2023-02-08T13:16:58;5.40;;;3.70;;
21786;SDS011;11055;50.870;4.316;2023-02-08T13:22:12;4.65;;;3.47;;
21786;SDS011;11055;50.870;4.316;2023-02-08T13:24:41;8.13;;;2.97;;
21786;SDS011;11055;50.870;4.316;2023-02-08T13:27:15;7.18;;;3.70;;
21786;SDS011;11055;50.870;4.316;2023-02-08T13:29:43;4.82;;;3.13;;
21786;SDS011;11055;50.870;4.316;2023-02-08T13:32:15;7.05;;;3.20;;
21786;SDS011;11055;50.870;4.316;2023-02-08T13:34:55;11.35;;;4.50;;
21786;SDS011;11055;50.870;4.316;2023-02-08T13:37:25;5.43;;;3.72;;
21786;SDS011;11055;50.870;4.316;2023-02-08T13:39:58;4.57;;;4.18;;
21786;SDS011;11055;50.870;4.316;2023-02-08T13:45:01;7.40;;;4.47;;
21786;SDS011;11055;50.870;4.316;2023-02-08T13:47:30;5.43;;;4.35;;
21786;SDS011;11055;50.870;4.316;2023-02-08T13:51:08;6.50;;;4.85;;
21786;SDS011;11055;50.870;4.316;2023-02-08T13:53:05;4.93;;;3.95;;
21786;SDS011;11055;50.870;4.316;2023-02-08T13:58:33;5.00;;;4.20;;
21786;SDS011;11055;50.870;4.316;2023-02-08T14:03:24;7.65;;;4.68;;
21786;SDS011;11055;50.870;4.316;2023-02-08T14:11:15;7.35;;;4.63;;
21786;SDS011;11055;50.870;4.316;2023-02-08T14:13:49;8.00;;;4.97;;
21786;SDS011;11055;50.870;4.316;2023-02-08T14:16:34;9.10;;;5.25;;
21786;SDS011;11055;50.870;4.316;2023-02-08T14:19:03;5.68;;;4.93;;
21786;SDS011;11055;50.870;4.316;2023-02-08T14:21:59;5.38;;;4.38;;
21786;SDS011;11055;50.870;4.316;2023-02-08T14:24:38;7.50;;;4.78;;
21786;SDS011;11055;50.870;4.316;2023-02-08T14:27:08;6.32;;;5.10;;
21786;SDS011;11055;50.870;4.316;2023-02-08T14:29:44;7.15;;;4.90;;
21786;SDS011;11055;50.870;4.316;2023-02-08T14:32:21;6.32;;;4.88;;
21786;SDS011;11055;50.870;4.316;2023-02-08T14:35:03;7.57;;;4.75;;
21786;SDS011;11055;50.870;4.316;2023-02-08T14:38:32;6.25;;;4.50;;
21786;SDS011;11055;50.870;4.316;2023-02-08T14:40:57;5.25;;;4.55;;
21786;SDS011;11055;50.870;4.316;2023-02-08T14:43:31;9.50;;;5.30;;
21786;SDS011;11055;50.870;4.316;2023-02-08T14:49:01;6.25;;;4.72;;
21786;SDS011;11055;50.870;4.316;2023-02-08T14:51:33;8.00;;;5.10;;
21786;SDS011;11055;50.870;4.316;2023-02-08T14:54:05;6.90;;;5.00;;
21786;SDS011;11055;50.870;4.316;2023-02-08T14:57:22;7.18;;;4.90;;
21786;SDS011;11055;50.870;4.316;2023-02-08T14:59:52;7.30;;;5.13;;
21786;SDS011;11055;50.870;4.316;2023-02-08T15:02:20;7.78;;;4.85;;
21786;SDS011;11055;50.870;4.316;2023-02-08T15:04:50;10.43;;;4.85;;
21786;SDS011;11055;50.870;4.316;2023-02-08T15:09:44;9.23;;;4.95;;
21786;SDS011;11055;50.870;4.316;2023-02-08T15:12:26;6.68;;;5.20;;
21786;SDS011;11055;50.870;4.316;2023-02-08T15:14:54;8.02;;;5.07;;
21786;SDS011;11055;50.870;4.316;2023-02-08T15:19:54;6.88;;;4.53;;
21786;SDS011;11055;50.870;4.316;2023-02-08T15:25:38;8.55;;;4.93;;
21786;SDS011;11055;50.870;4.316;2023-02-08T15:27:54;10.32;;;5.15;;
21786;SDS011;11055;50.870;4.316;2023-02-08T15:30:22;8.45;;;5.00;;
21786;SDS011;11055;50.870;4.316;2023-02-08T15:33:02;9.38;;;5.18;;
21786;SDS011;11055;50.870;4.316;2023-02-08T15:35:34;10.10;;;5.10;;
21786;SDS011;11055;50.870;4.316;2023-02-08T15:38:00;10.50;;;5.53;;
21786;SDS011;11055;50.870;4.316;2023-02-08T15:40:33;9.90;;;5.63;;
21786;SDS011;11055;50.870;4.316;2023-02-08T15:45:31;9.43;;;5.25;;
21786;SDS011;11055;50.870;4.316;2023-02-08T15:47:57;8.73;;;5.20;;
21786;SDS011;11055;50.870;4.316;2023-02-08T15:50:23;11.40;;;5.60;;
21786;SDS011;11055;50.870;4.316;2023-02-08T15:52:51;8.23;;;5.22;;
21786;SDS011;11055;50.870;4.316;2023-02-08T15:55:22;9.02;;;6.03;;
21786;SDS011;11055;50.870;4.316;2023-02-08T15:57:54;9.45;;;5.63;;
21786;SDS011;11055;50.870;4.316;2023-02-08T16:00:27;9.45;;;5.50;;
21786;SDS011;11055;50.870;4.316;2023-02-08T16:03:01;14.18;;;5.28;;
21786;SDS011;11055;50.870;4.316;2023-02-08T16:05:33;7.35;;;5.32;;
21786;SDS011;11055;50.870;4.316;2023-02-08T16:08:00;8.20;;;5.13;;
21786;SDS011;11055;50.870;4.316;2023-02-08T16:10:41;11.57;;;5.85;;
21786;SDS011;11055;50.870;4.316;2023-02-08T16:13:17;9.60;;;5.60;;
21786;SDS011;11055;50.870;4.316;2023-02-08T16:15:54;10.45;;;5.45;;
21786;SDS011;11055;50.870;4.316;2023-02-08T16:18:39;7.65;;;5.45;;
21786;SDS011;11055;50.870;4.316;2023-02-08T16:23:52;9.95;;;5.47;;
21786;SDS011;11055;50.870;4.316;2023-02-08T16:26:23;7.50;;;4.90;;
21786;SDS011;11055;50.870;4.316;2023-02-08T16:28:53;9.38;;;5.00;;
21786;SDS011;11055;50.870;4.316;2023-02-08T16:31:31;12.32;;;5.30;;
21786;SDS011;11055;50.870;4.316;2023-02-08T16:34:00;14.07;;;5.50;;
21786;SDS011;11055;50.870;4.316;2023-02-08T16:36:33;15.00;;;5.95;;
21786;SDS011;11055;50.870;4.316;2023-02-08T16:41:56;10.60;;;4.90;;
21786;SDS011;11055;50.870;4.316;2023-02-08T16:44:24;11.23;;;4.93;;
21786;SDS011;11055;50.870;4.316;2023-02-08T16:46:53;10.65;;;5.28;;
21786;SDS011;11055;50.870;4.316;2023-02-08T16:49:18;9.52;;;4.57;;
21786;SDS011;11055;50.870;4.316;2023-02-08T16:51:44;14.15;;;5.85;;
21786;SDS011;11055;50.870;4.316;2023-02-08T16:54:14;8.55;;;4.60;;
21786;SDS011;11055;50.870;4.316;2023-02-08T16:56:42;6.57;;;4.47;;
21786;SDS011;11055;50.870;4.316;2023-02-08T16:59:09;8.18;;;4.35;;
21786;SDS011;11055;50.870;4.316;2023-02-08T17:01:37;8.80;;;5.03;;
21786;SDS011;11055;50.870;4.316;2023-02-08T17:04:03;9.60;;;5.07;;
21786;SDS011;11055;50.870;4.316;2023-02-08T17:06:31;6.82;;;5.00;;
21786;SDS011;11055;50.870;4.316;2023-02-08T17:09:00;8.25;;;4.80;;
21786;SDS011;11055;50.870;4.316;2023-02-08T17:11:28;10.35;;;5.38;;
21786;SDS011;11055;50.870;4.316;2023-02-08T17:13:54;8.45;;;5.68;;
21786;SDS011;11055;50.870;4.316;2023-02-08T17:16:23;8.43;;;4.88;;
21786;SDS011;11055;50.870;4.316;2023-02-08T17:18:50;7.63;;;4.43;;
21786;SDS011;11055;50.870;4.316;2023-02-08T17:21:16;9.30;;;4.43;;
21786;SDS011;11055;50.870;4.316;2023-02-08T17:23:42;11.60;;;4.70;;
21786;SDS011;11055;50.870;4.316;2023-02-08T17:26:15;8.55;;;4.68;;
21786;SDS011;11055;50.870;4.316;2023-02-08T17:28:42;9.30;;;4.55;;
21786;SDS011;11055;50.870;4.316;2023-02-08T17:31:10;10.63;;;4.22;;